Time;durP1;ratioP1;P1;durP2;ratioP2;P2;SDS_P1;SDS_P2;PMS_P1;PMS_P2;Temp;Humidity;BMP_temperature;BMP_pressure;BME280_temperature;BME280_humidity;BME280_pressure;Samples;Min_cycle;Max_cycle;Signal;HPM_P1;HPM_P2
2020/12/31 00:05:01;;;;;;;141.57;55.20;;;;;;;0.28;75.02;99761.03;4892862;60;21490;-87
2020/12/31 00:10:07;;;;;;;142.00;56.70;;;;;;;0.28;75.24;99770.59;4870631;61;21136;-87
2020/12/31 00:15:13;;;;;;;181.07;70.27;;;;;;;0.29;75.27;99767.92;4870536;61;21195;-87
2020/12/31 00:20:19;;;;;;;132.60;53.30;;;;;;;0.29;75.53;99769.22;4870408;61;21167;-88
2020/12/31 00:25:24;;;;;;;165.57;62.23;;;;;;;0.28;75.56;99777.09;4879673;60;21168;-87
2020/12/31 00:30:30;;;;;;;174.30;65.43;;;;;;;0.24;75.91;99768.58;4976859;59;21102;-88
2020/12/31 00:35:36;;;;;;;232.27;86.40;;;;;;;0.27;76.08;99772.34;4900499;59;21140;-87
2020/12/31 00:40:42;;;;;;;149.70;55.73;;;;;;;0.30;76.29;99773.96;4870501;61;21155;-87
2020/12/31 00:45:47;;;;;;;133.20;55.27;;;;;;;0.24;75.87;99786.78;4898519;60;21152;-87
2020/12/31 00:50:53;;;;;;;101.33;38.10;;;;;;;0.27;76.49;99790.55;4977057;60;21164;-87
2020/12/31 00:56:00;;;;;;;102.23;39.70;;;;;;;0.36;76.83;99789.26;4977055;60;21141;-87
2020/12/31 01:01:07;;;;;;;108.27;43.97;;;;;;;0.43;77.07;99788.06;4933082;60;21144;-88
2020/12/31 01:06:13;;;;;;;92.57;38.77;;;;;;;0.52;77.10;99789.37;4861832;60;21176;-87
2020/12/31 01:11:19;;;;;;;85.60;35.27;;;;;;;0.63;77.11;99784.48;4976858;60;21117;-87
2020/12/31 01:16:25;;;;;;;96.40;37.23;;;;;;;0.62;76.91;99792.74;4976839;59;21236;-87
2020/12/31 01:21:30;;;;;;;101.57;44.63;;;;;;;0.60;76.81;99798.97;4976767;60;21173;-88
2020/12/31 01:26:36;;;;;;;107.87;43.33;;;;;;;0.62;77.00;99796.64;4976785;59;21173;-87
2020/12/31 01:31:43;;;;;;;97.23;42.33;;;;;;;0.65;77.24;99795.66;4957789;60;1134299;-87
2020/12/31 01:36:53;;;;;;;95.70;36.97;;;;;;;0.69;77.21;99790.24;4901045;59;1136292;-87
2020/12/31 01:42:06;;;;;;;84.73;33.40;;;;;;;0.70;77.05;99796.29;4925858;60;21142;-88
2020/12/31 01:47:14;;;;;;;82.55;34.05;;;;;;;0.65;77.23;99797.80;4870156;61;21236;-87
2020/12/31 01:52:21;;;;;;;74.90;30.10;;;;;;;0.60;77.42;99798.51;4902149;60;21173;-88
2020/12/31 01:57:27;;;;;;;86.27;33.73;;;;;;;0.56;77.59;99806.06;4822816;59;1132195;-87
2020/12/31 02:02:33;;;;;;;85.70;32.70;;;;;;;0.52;77.78;99811.02;4812456;60;1134287;-88
2020/12/31 02:07:38;;;;;;;71.97;30.83;;;;;;;0.52;77.80;99807.12;4949791;59;21184;-87
2020/12/31 02:12:44;;;;;;;81.20;33.87;;;;;;;0.51;77.91;99809.34;4869093;60;21530;-87
2020/12/31 02:17:50;;;;;;;70.63;30.17;;;;;;;0.49;77.95;99815.52;4871495;60;21185;-87
2020/12/31 02:22:55;;;;;;;81.60;32.37;;;;;;;0.51;78.12;99813.70;4859639;60;21165;-87
2020/12/31 02:28:01;;;;;;;87.43;36.57;;;;;;;0.51;78.28;99820.20;4856070;60;21235;-87
2020/12/31 02:33:06;;;;;;;75.27;34.00;;;;;;;0.49;78.13;99829.83;4790957;62;21495;-87
2020/12/31 02:38:12;;;;;;;87.63;35.50;;;;;;;0.51;78.11;99836.66;4855566;60;21270;-87
2020/12/31 02:43:17;;;;;;;83.30;34.85;;;;;;;0.57;78.24;99839.44;4910249;60;1132154;-88
2020/12/31 02:48:23;;;;;;;79.00;33.37;;;;;;;0.53;78.04;99833.98;4817707;60;1136281;-87
2020/12/31 02:53:29;;;;;;;67.67;27.17;;;;;;;0.55;78.12;99834.76;4929095;60;21228;-87
2020/12/31 02:58:34;;;;;;;67.80;30.87;;;;;;;0.46;78.12;99843.01;4825188;60;1132047;-88
2020/12/31 03:03:40;;;;;;;79.23;30.43;;;;;;;0.37;78.04;99833.86;4849013;60;1136156;-87
2020/12/31 03:08:47;;;;;;;70.67;31.77;;;;;;;0.32;78.29;99834.06;4758639;60;1136225;-87
2020/12/31 03:13:53;;;;;;;72.00;29.93;;;;;;;0.28;78.48;99838.20;4785935;61;1136346;-88
2020/12/31 03:18:59;;;;;;;67.34;28.18;;;;;;;0.24;78.36;99831.45;4822291;60;1136331;-88
2020/12/31 03:24:05;;;;;;;70.12;28.75;;;;;;;0.20;78.47;99829.89;4808446;60;1136498;-87
2020/12/31 03:29:10;;;;;;;73.90;27.50;;;;;;;0.16;78.65;99833.54;4913676;60;21114;-87
2020/12/31 03:34:16;;;;;;;69.03;27.17;;;;;;;0.14;78.76;99834.09;4915076;60;21133;-88
2020/12/31 03:39:21;;;;;;;66.50;27.87;;;;;;;0.12;78.81;99834.62;4926397;60;21168;-87
2020/12/31 03:44:27;;;;;;;59.40;26.60;;;;;;;0.08;78.77;99832.61;4892813;60;21185;-87
2020/12/31 03:49:32;;;;;;;60.97;25.73;;;;;;;0.09;78.95;99831.70;4917979;60;21214;-87
2020/12/31 03:54:38;;;;;;;59.53;24.53;;;;;;;0.04;79.04;99820.66;4909583;60;21531;-88
2020/12/31 03:59:43;;;;;;;63.13;27.40;;;;;;;0.04;79.15;99821.95;4943689;60;21126;-87
2020/12/31 04:04:49;;;;;;;63.23;27.43;;;;;;;0.03;79.15;99820.72;4907411;60;21183;-87
2020/12/31 04:09:55;;;;;;;51.57;22.17;;;;;;;0.04;79.13;99827.16;4895250;60;21157;-87
2020/12/31 04:15:00;;;;;;;63.00;26.57;;;;;;;0.05;79.15;99821.50;4794079;60;1132318;-87
2020/12/31 04:20:07;;;;;;;53.77;21.53;;;;;;;0.03;79.12;99822.86;4821015;60;1136353;-87
2020/12/31 04:25:13;;;;;;;57.10;25.03;;;;;;;0.05;79.20;99824.94;4861091;60;21194;-87
2020/12/31 04:30:18;;;;;;;94.00;39.55;;;;;;;0.04;79.18;99831.05;4754141;61;1133061;-87
2020/12/31 04:35:24;;;;;;;86.50;37.63;;;;;;;0.08;79.21;99836.51;4708967;60;1136375;-87
2020/12/31 04:40:29;;;;;;;98.30;42.13;;;;;;;0.09;79.07;99846.00;4901131;59;1134281;-87
2020/12/31 04:45:36;;;;;;;103.80;42.33;;;;;;;0.10;79.25;99846.38;4936078;60;21477;-87
2020/12/31 04:50:44;;;;;;;70.03;30.93;;;;;;;0.13;79.09;99857.95;4856645;59;1134847;-87
2020/12/31 04:55:49;;;;;;;78.73;31.90;;;;;;;0.19;79.29;99868.52;4841925;59;1136569;-87
2020/12/31 05:00:55;;;;;;;70.33;28.17;;;;;;;0.20;79.13;99874.95;4879479;59;1203641;-87
2020/12/31 05:06:04;;;;;;;50.60;22.20;;;;;;;0.13;78.80;99877.45;4825438;59;1136464;-86
2020/12/31 05:11:10;;;;;;;67.43;26.93;;;;;;;0.05;78.92;99886.03;4860240;59;1136685;-86
2020/12/31 05:16:17;;;;;;;53.13;22.67;;;;;;;0.02;78.87;99890.06;4894590;60;1136380;-87
2020/12/31 05:21:22;;;;;;;189.10;74.83;;;;;;;-0.03;79.12;99898.09;4842434;59;1136182;-87
2020/12/31 05:26:32;;;;;;;72.13;29.17;;;;;;;-0.04;79.10;99898.16;4951820;59;21528;-87
2020/12/31 05:31:56;;;;;;;52.70;23.83;;;;;;;-0.05;79.18;99909.45;4872280;59;1134431;-86
2020/12/31 05:37:14;;;;;;;;;;;;;;;-0.10;79.14;99904.45;4716131;61;1138630;-87
2020/12/31 05:42:23;;;;;;;54.47;24.03;;;;;;;-0.10;79.02;99913.55;4790426;60;971452;-86
2020/12/31 05:47:28;;;;;;;57.13;27.37;;;;;;;-0.13;79.30;99917.58;4801561;60;1136122;-87
2020/12/31 05:52:38;;;;;;;66.23;26.77;;;;;;;-0.10;79.28;99923.95;4819509;61;21186;-87
2020/12/31 05:57:52;;;;;;;49.07;20.53;;;;;;;-0.14;79.13;99925.44;4922623;59;21509;-86
2020/12/31 06:03:02;;;;;;;54.50;21.37;;;;;;;-0.19;79.28;99933.45;4914884;59;21181;-86
2020/12/31 06:08:08;;;;;;;50.07;19.80;;;;;;;-0.29;79.56;99932.14;4891695;59;21519;-87
2020/12/31 06:13:16;;;;;;;53.80;20.40;;;;;;;-0.36;79.67;99940.66;4822152;60;1134265;-86
2020/12/31 06:18:23;;;;;;;50.57;22.30;;;;;;;-0.36;79.59;99947.16;4894431;59;21177;-86
2020/12/31 06:23:38;;;;;;;54.87;21.90;;;;;;;-0.39;79.69;99948.58;4881726;59;1134217;-86
2020/12/31 06:28:46;;;;;;;51.80;20.60;;;;;;;-0.45;79.80;99949.27;4814751;60;1138551;-86
2020/12/31 06:33:53;;;;;;;52.13;21.97;;;;;;;-0.48;79.81;99961.11;4817040;60;1136151;-86
2020/12/31 06:38:59;;;;;;;57.83;24.30;;;;;;;-0.41;79.91;99959.94;4848144;61;21169;-85
2020/12/31 06:44:18;;;;;;;60.50;24.83;;;;;;;-0.31;80.20;99968.21;4848166;61;21186;-86
2020/12/31 06:49:24;;;;;;;60.83;24.83;;;;;;;-0.22;79.88;99973.86;4847850;61;21130;-86
2020/12/31 06:54:30;;;;;;;50.67;22.63;;;;;;;-0.21;79.83;99968.20;4847969;61;21154;-86
2020/12/31 06:59:41;;;;;;;38.87;16.87;;;;;;;-0.19;79.69;99967.23;4847685;61;21198;-86
2020/12/31 07:04:47;;;;;;;47.77;20.70;;;;;;;-0.23;79.54;99966.12;4847823;61;21162;-86
2020/12/31 07:09:58;;;;;;;54.90;23.60;;;;;;;-0.31;79.54;99965.16;4847898;61;21134;-86
2020/12/31 07:15:08;;;;;;;57.67;26.20;;;;;;;-0.38;79.74;99973.65;4801874;60;21490;-86
2020/12/31 07:20:18;;;;;;;47.33;20.37;;;;;;;-0.41;79.88;99975.52;4790408;61;21477;-85
2020/12/31 07:25:25;;;;;;;54.33;23.03;;;;;;;-0.46;80.16;99980.08;4815319;61;21178;-85
2020/12/31 07:30:30;;;;;;;47.13;21.07;;;;;;;-0.47;80.21;99976.64;4792296;62;21607;-86
2020/12/31 07:35:49;;;;;;;42.10;19.87;;;;;;;-0.44;80.27;99982.98;4788446;62;21221;-86
2020/12/31 07:40:55;;;;;;;57.57;25.10;;;;;;;-0.37;80.31;99988.78;4863004;61;21196;-85
2020/12/31 07:46:03;;;;;;;57.60;29.27;;;;;;;-0.32;80.60;99990.75;4808024;61;21566;-87
2020/12/31 07:51:09;;;;;;;42.70;19.93;;;;;;;-0.23;80.65;99995.55;4792510;62;21301;-86
2020/12/31 07:56:15;;;;;;;41.90;18.33;;;;;;;-0.19;80.71;99996.27;4791833;62;21302;-86
2020/12/31 08:01:25;;;;;;;49.33;23.23;;;;;;;-0.18;81.11;99998.81;4791739;62;21509;-86
2020/12/31 08:06:31;;;;;;;47.10;22.10;;;;;;;-0.16;80.92;99999.59;4791831;62;21186;-86
2020/12/31 08:11:36;;;;;;;126.93;51.83;;;;;;;-0.13;81.08;99999.89;4791906;62;21534;-86
2020/12/31 08:16:42;;;;;;;53.30;24.03;;;;;;;-0.13;81.07;100005.94;4878410;60;21217;-86
2020/12/31 08:21:48;;;;;;;63.73;30.93;;;;;;;-0.10;80.94;100002.38;4879878;61;21140;-85
2020/12/31 08:27:01;;;;;;;61.30;26.53;;;;;;;-0.12;81.01;100005.48;4880734;61;21171;-86
2020/12/31 08:32:08;;;;;;;90.38;49.08;;;;;;;-0.09;80.99;100003.61;4880419;61;21179;-85
2020/12/31 08:37:16;;;;;;;67.13;25.00;;;;;;;-0.05;81.20;100001.28;4880088;61;21113;-85
2020/12/31 08:42:25;;;;;;;40.20;17.67;;;;;;;0.09;81.35;100003.74;4880080;61;21180;-85
2020/12/31 08:47:31;;;;;;;96.80;41.03;;;;;;;0.21;81.75;100007.11;4875516;61;21484;-85
2020/12/31 08:52:36;;;;;;;62.60;23.17;;;;;;;0.37;81.75;100000.78;4868049;61;21175;-86
2020/12/31 08:57:42;;;;;;;60.17;25.80;;;;;;;0.50;81.68;100001.47;4868847;61;21163;-86
2020/12/31 09:02:54;;;;;;;55.90;21.67;;;;;;;0.62;81.63;99999.61;4868893;61;21166;-86
2020/12/31 09:08:08;;;;;;;65.73;27.33;;;;;;;0.79;81.53;99998.00;4869028;61;21174;-86
2020/12/31 09:13:21;;;;;;;63.80;24.60;;;;;;;0.87;81.51;99998.05;4887848;59;21172;-86
2020/12/31 09:18:27;;;;;;;48.33;20.52;;;;;;;0.97;81.34;99999.30;4996653;59;21129;-86
2020/12/31 09:23:32;;;;;;;32.43;12.60;;;;;;;1.03;81.16;99996.42;4997118;59;21145;-87
2020/12/31 09:28:42;;;;;;;39.07;14.30;;;;;;;1.02;81.22;99995.19;4996940;59;21279;-86
2020/12/31 09:33:50;;;;;;;44.83;17.70;;;;;;;1.09;81.36;100013.95;4996942;59;21149;-87
2020/12/31 09:39:01;;;;;;;72.45;25.50;;;;;;;1.16;81.31;100003.20;4996665;59;21224;-88
2020/12/31 09:44:07;;;;;;;34.10;16.27;;;;;;;1.22;81.34;100004.68;4996993;59;21510;-88
2020/12/31 09:49:29;;;;;;;35.03;15.57;;;;;;;1.29;81.04;99997.78;4997898;59;21231;-89
2020/12/31 09:54:45;;;;;;;31.80;15.73;;;;;;;1.34;80.87;99993.21;4976971;59;21197;-88
2020/12/31 09:59:50;;;;;;;34.37;15.93;;;;;;;1.41;80.86;99994.59;4867054;59;1132307;-89
2020/12/31 10:04:56;;;;;;;32.17;15.33;;;;;;;1.48;80.74;99990.39;4827855;60;1136532;-89
2020/12/31 10:10:02;;;;;;;39.43;16.10;;;;;;;1.53;80.70;99981.41;4882686;60;1135210;-89
2020/12/31 10:15:08;;;;;;;42.57;19.37;;;;;;;1.59;80.54;99984.19;4932289;60;21175;-90
2020/12/31 10:20:13;;;;;;;33.87;14.10;;;;;;;1.66;80.46;99985.58;4969080;59;21143;-89
2020/12/31 10:25:19;;;;;;;34.93;13.00;;;;;;;1.71;80.21;99980.97;5009316;59;21173;-89
2020/12/31 10:30:24;;;;;;;32.70;13.93;;;;;;;1.76;80.14;99977.68;4942814;60;21500;-87
2020/12/31 10:35:30;;;;;;;33.60;13.77;;;;;;;1.79;80.00;99973.62;4957294;59;21504;-86
2020/12/31 10:40:35;;;;;;;47.77;17.80;;;;;;;1.89;79.97;99968.77;4899463;59;1132556;-88
2020/12/31 10:45:41;;;;;;;34.17;12.07;;;;;;;1.96;79.99;99963.64;4942095;59;1136198;-87
2020/12/31 10:50:47;;;;;;;30.60;11.97;;;;;;;2.06;80.06;99960.47;4963217;59;21161;-87
2020/12/31 10:55:53;;;;;;;89.30;26.93;;;;;;;2.16;79.75;99955.61;4910941;59;1132123;-89
2020/12/31 11:00:58;;;;;;;44.87;19.30;;;;;;;2.25;79.63;99958.22;4830478;60;1136356;-89
2020/12/31 11:06:04;;;;;;;61.80;24.23;;;;;;;2.32;79.41;99951.28;4799426;60;1136341;-89
2020/12/31 11:11:09;;;;;;;45.77;18.17;;;;;;;2.42;79.68;99949.89;4824099;60;1136217;-89
2020/12/31 11:16:16;;;;;;;31.73;12.70;;;;;;;2.56;79.44;99949.61;4796149;60;1136220;-89
2020/12/31 11:21:22;;;;;;;27.57;14.37;;;;;;;2.65;79.08;99931.67;4880439;59;1134173;-88
2020/12/31 11:26:28;;;;;;;36.97;20.10;;;;;;;2.77;79.18;99930.15;4813117;60;1136167;-88
2020/12/31 11:31:34;;;;;;;25.17;11.93;;;;;;;2.84;78.74;99923.68;4807962;60;1137015;-89
2020/12/31 11:36:39;;;;;;;40.80;19.00;;;;;;;3.00;78.54;99922.36;4815925;60;1136349;-87
2020/12/31 11:41:45;;;;;;;43.10;18.17;;;;;;;3.29;78.75;99916.33;4799224;60;1136249;-87
2020/12/31 11:46:50;;;;;;;41.53;19.92;;;;;;;3.51;77.83;99916.75;4832874;60;1136317;-88
2020/12/31 11:51:59;;;;;;;88.00;36.43;;;;;;;3.64;77.90;99911.68;4810720;60;1136284;-86
2020/12/31 11:57:05;;;;;;;45.08;19.77;;;;;;;3.82;78.21;99914.95;4798954;60;1136185;-86
2020/12/31 12:02:11;;;;;;;33.27;17.13;;;;;;;4.22;77.77;99918.65;4811630;60;1136610;-86
2020/12/31 12:07:16;;;;;;;33.60;18.07;;;;;;;4.68;76.93;99911.88;4819996;60;1136280;-86
2020/12/31 12:12:21;;;;;;;32.20;17.37;;;;;;;5.16;76.84;99901.34;4806684;60;1136355;-87
2020/12/31 12:17:27;;;;;;;25.57;14.47;;;;;;;5.61;76.07;99905.34;4773000;60;1136735;-87
2020/12/31 12:22:33;;;;;;;36.73;16.20;;;;;;;6.01;75.00;99910.06;4770135;60;1138407;-87
2020/12/31 12:27:38;;;;;;;32.83;15.30;;;;;;;6.32;74.46;99907.47;4798743;60;1136083;-88
2020/12/31 12:32:46;;;;;;;34.97;17.03;;;;;;;6.68;73.29;99908.83;4762596;60;1136596;-88
2020/12/31 12:37:52;;;;;;;24.63;13.77;;;;;;;6.86;71.39;99905.84;4733884;61;1136270;-88
2020/12/31 12:42:57;;;;;;;72.30;57.83;;;;;;;7.08;71.50;99906.42;4723686;60;1136441;-87
2020/12/31 12:48:03;;;;;;;64.53;48.70;;;;;;;7.33;70.89;99908.95;4733357;61;1136355;-87
2020/12/31 12:53:08;;;;;;;20.53;12.50;;;;;;;7.61;70.37;99905.10;4823801;59;1137184;-87
2020/12/31 12:58:14;;;;;;;97.00;31.13;;;;;;;7.72;68.78;99907.28;4809768;60;1136390;-88
2020/12/31 13:03:19;;;;;;;31.35;15.38;;;;;;;7.88;68.68;99914.85;4826962;60;1136249;-87
2020/12/31 13:08:25;;;;;;;112.93;46.70;;;;;;;8.23;69.95;99912.16;4829057;60;1136285;-88
2020/12/31 13:13:31;;;;;;;34.63;19.43;;;;;;;8.64;67.21;99906.30;4826524;59;1138371;-88
2020/12/31 13:18:37;;;;;;;41.53;24.00;;;;;;;8.93;66.93;99905.77;4848334;59;1138339;-87
2020/12/31 13:23:43;;;;;;;47.43;27.40;;;;;;;9.17;67.01;99913.00;4840053;59;1138789;-87
2020/12/31 13:28:51;;;;;;;153.40;65.23;;;;;;;9.50;65.82;99919.48;4839175;59;1139184;-87
2020/12/31 13:33:56;;;;;;;96.90;46.20;;;;;;;9.46;63.05;99922.03;4830913;59;1140989;-89
2020/12/31 13:39:39;;;;;;;73.20;35.53;;;;;;;9.23;60.82;99930.14;4835672;59;1138043;-87
2020/12/31 13:57:16;;;;;;;65.93;34.53;;;;;;;6.14;64.41;99932.37;4481303;63;1136418;-88
2020/12/31 14:02:42;;;;;;;139.37;72.97;;;;;;;5.54;65.85;99927.66;4594774;64;21217;-89
2020/12/31 14:15:04;;;;;;;71.87;30.13;;;;;;;5.18;67.14;99950.59;4635285;62;1132218;-89
2020/12/31 14:20:28;;;;;;;75.13;32.10;;;;;;;4.94;67.60;99936.78;4566513;60;1136335;-89
2020/12/31 14:32:28;;;;;;;97.77;43.40;;;;;;;4.37;69.11;99954.83;4193892;68;1136446;-88
2020/12/31 14:37:34;;;;;;;106.40;54.23;;;;;;;4.09;69.71;99955.66;4226547;66;1136431;-88
2020/12/31 14:42:41;;;;;;;84.05;42.65;;;;;;;3.94;70.17;99960.49;4246909;66;1138674;-87
2020/12/31 14:47:46;;;;;;;82.20;36.27;;;;;;;3.74;70.78;99960.34;4327077;66;1136728;-88
2020/12/31 14:52:52;;;;;;;102.67;43.38;;;;;;;3.61;71.06;99960.22;4441499;63;1136412;-88
2020/12/31 14:57:58;;;;;;;106.63;51.13;;;;;;;3.46;71.51;99963.72;4581122;62;1138988;-88
2020/12/31 15:03:05;;;;;;;135.37;67.40;;;;;;;3.33;71.86;99975.34;4764800;59;1138444;-88
2020/12/31 15:08:10;;;;;;;125.30;59.20;;;;;;;3.33;71.86;99975.34;4904881;59;1138391;-88
2020/12/31 15:13:16;;;;;;;132.90;57.93;;;;;;;3.23;72.03;99974.16;4869176;59;1138549;-88
2020/12/31 15:18:21;;;;;;;124.93;56.33;;;;;;;3.12;72.43;99972.15;4874672;59;1138406;-88
2020/12/31 15:23:27;;;;;;;156.90;67.73;;;;;;;3.08;72.38;99975.85;4823556;59;1138398;-88
2020/12/31 15:28:33;;;;;;;163.90;76.07;;;;;;;3.05;72.32;99978.66;4822980;60;1138490;-89
2020/12/31 15:33:39;;;;;;;481.40;194.87;;;;;;;2.98;72.47;99986.44;4819128;59;1138931;-89
2020/12/31 15:38:47;;;;;;;85.77;37.77;;;;;;;2.92;72.79;99991.14;4798203;60;1140935;-87
2020/12/31 15:43:52;;;;;;;79.07;32.57;;;;;;;2.85;72.95;99989.34;4817115;60;1136267;-87
2020/12/31 15:48:58;;;;;;;113.73;47.00;;;;;;;2.82;72.85;99988.20;4818467;59;1136501;-89
2020/12/31 15:54:05;;;;;;;408.33;162.93;;;;;;;2.76;72.94;99981.98;4859590;60;1138501;-89
2020/12/31 15:59:10;;;;;;;465.20;210.37;;;;;;;2.72;73.17;99983.95;4819388;60;1140633;-89
2020/12/31 16:04:16;;;;;;;228.93;86.57;;;;;;;2.63;73.04;99973.98;4831319;59;1140347;-89
2020/12/31 16:09:21;;;;;;;264.27;101.37;;;;;;;2.56;72.69;99968.73;4806263;60;1138629;-89
2020/12/31 16:14:27;;;;;;;448.80;218.73;;;;;;;2.47;72.61;99976.56;4825819;60;1140352;-90
2020/12/31 16:19:32;;;;;;;306.40;129.00;;;;;;;2.33;72.92;99975.15;4836678;59;1140467;-89
2020/12/31 16:24:38;;;;;;;117.80;50.50;;;;;;;2.34;73.16;99978.60;4785362;60;1140456;-90
2020/12/31 16:29:44;;;;;;;131.77;53.00;;;;;;;2.33;73.24;99981.67;4760366;60;1138522;-88
2020/12/31 16:34:50;;;;;;;135.88;65.15;;;;;;;2.30;73.51;99979.22;4757255;60;1138523;-89
2020/12/31 16:39:55;;;;;;;144.43;58.60;;;;;;;2.22;73.84;99987.92;4742808;60;1138450;-91
2020/12/31 16:45:01;;;;;;;204.27;92.27;;;;;;;2.08;73.92;99979.50;4742461;60;1138342;-90
2020/12/31 16:50:08;;;;;;;135.60;57.27;;;;;;;2.07;74.04;99989.55;4773233;60;1138336;-91
2020/12/31 16:55:14;;;;;;;94.57;41.90;;;;;;;2.02;74.59;99987.63;4759597;60;1138485;-90
2020/12/31 17:00:20;;;;;;;89.97;39.83;;;;;;;1.94;74.81;99993.70;4786578;61;1136661;-90
2020/12/31 17:05:26;;;;;;;114.70;45.23;;;;;;;1.92;75.01;99991.63;4761659;60;1136417;-89
2020/12/31 17:10:32;;;;;;;362.73;187.37;;;;;;;1.90;75.03;99994.77;4644572;61;1138304;-90
2020/12/31 17:15:37;;;;;;;109.90;48.43;;;;;;;1.84;75.32;99995.53;4551221;62;1140539;-89
2020/12/31 17:20:43;;;;;;;105.40;47.70;;;;;;;1.76;75.82;99998.53;4679148;61;1138906;-89
2020/12/31 17:31:19;;;;;;;213.47;104.57;;;;;;;1.70;75.67;99993.16;4637590;61;1138480;-91
2020/12/31 17:36:26;;;;;;;161.13;79.63;;;;;;;1.67;75.62;99989.42;4650923;61;1140512;-90
2020/12/31 17:41:31;;;;;;;166.67;70.83;;;;;;;1.67;75.65;99988.58;4651952;61;1138436;-91
2020/12/31 17:46:37;;;;;;;296.87;113.47;;;;;;;1.58;76.00;99998.13;4650034;61;1138334;-90
2020/12/31 17:51:46;;;;;;;126.60;51.33;;;;;;;1.54;75.85;99995.28;4643800;61;1140612;-90
2020/12/31 17:56:52;;;;;;;114.50;50.50;;;;;;;1.51;75.90;100001.52;4649836;62;1138515;-90
2020/12/31 18:02:02;;;;;;;168.47;70.47;;;;;;;1.44;76.16;100002.72;4649260;61;1141065;-91
2020/12/31 18:07:07;;;;;;;245.90;101.03;;;;;;;1.40;76.23;100001.17;4671664;60;1140482;-90
2020/12/31 18:12:13;;;;;;;405.20;157.00;;;;;;;1.39;76.08;99997.72;4764787;60;1142509;-90
2020/12/31 18:17:18;;;;;;;193.33;74.30;;;;;;;1.37;76.13;99996.98;4755983;60;1140520;-90
2020/12/31 18:22:24;;;;;;;224.67;88.20;;;;;;;1.34;76.21;99998.88;4750744;60;1138263;-91
2020/12/31 18:27:30;;;;;;;512.40;209.10;;;;;;;1.33;76.04;99999.33;4755162;60;1138893;-91
2020/12/31 18:32:39;;;;;;;388.23;154.30;;;;;;;1.30;76.06;100004.69;4766725;60;1140477;-90
2020/12/31 18:37:47;;;;;;;160.73;65.90;;;;;;;1.22;76.10;100003.37;4795602;60;1142555;-90
2020/12/31 18:42:54;;;;;;;183.75;76.02;;;;;;;1.17;76.60;100002.74;4772264;60;1140458;-90
2020/12/31 18:47:59;;;;;;;141.70;59.63;;;;;;;1.07;76.60;99999.70;4774194;60;1140629;-90
2020/12/31 18:53:05;;;;;;;150.60;64.77;;;;;;;1.07;76.68;100004.91;4791160;59;1138770;-90
2020/12/31 18:58:14;;;;;;;548.17;268.53;;;;;;;1.14;76.79;100004.18;4802801;60;1140531;-90
2020/12/31 19:03:21;;;;;;;551.60;268.40;;;;;;;1.11;76.62;99998.66;4767309;60;1142449;-90
2020/12/31 19:09:17;;;;;;;434.57;185.30;;;;;;;1.12;76.62;99995.13;4744471;60;1140494;-91
2020/12/31 19:15:15;;;;;;;497.83;225.80;;;;;;;1.10;76.36;99999.56;4638309;61;1140269;-90
2020/12/31 19:27:17;;;;;;;425.00;171.07;;;;;;;0.89;76.40;99994.92;4660216;61;1140548;-90
2020/12/31 19:32:22;;;;;;;246.50;95.70;;;;;;;0.79;76.93;99998.00;4638971;62;1140488;-89
2020/12/31 19:37:28;;;;;;;440.23;186.67;;;;;;;0.77;76.92;99998.52;4645296;62;1138520;-90
2020/12/31 19:42:34;;;;;;;522.17;189.13;;;;;;;0.73;77.12;100002.20;4694557;62;1140445;-90
2020/12/31 19:53:47;;;;;;;200.40;83.50;;;;;;;0.67;77.95;99999.41;5048422;56;1136347;-88
2020/12/31 19:58:54;;;;;;;228.00;87.07;;;;;;;0.65;77.83;100001.23;5012733;58;1138299;-88
2020/12/31 20:03:59;;;;;;;463.03;186.55;;;;;;;0.64;77.92;100003.45;5137908;56;1140772;-88
2020/12/31 20:09:05;;;;;;;237.07;94.00;;;;;;;0.62;77.89;99998.30;5107222;57;1142645;-88
2020/12/31 20:14:11;;;;;;;180.53;72.77;;;;;;;0.57;78.82;100000.30;5123786;57;1138706;-89
2020/12/31 20:19:17;;;;;;;191.20;81.60;;;;;;;0.56;78.38;99997.76;4968348;58;1140432;-88
2020/12/31 20:24:23;;;;;;;234.18;103.50;;;;;;;0.52;78.61;99997.50;5036606;56;1138325;-89
2020/12/31 20:29:32;;;;;;;385.67;148.87;;;;;;;0.50;78.72;100005.83;5009788;56;1140459;-89
2020/12/31 20:34:40;;;;;;;395.03;154.07;;;;;;;0.50;78.47;100000.63;5061463;57;1142868;-89
2020/12/31 20:39:45;;;;;;;304.87;111.53;;;;;;;0.49;78.94;100006.73;5138345;56;1142873;-88
2020/12/31 20:44:51;;;;;;;676.57;286.57;;;;;;;0.50;78.77;100010.57;5110531;56;1142918;-89
2020/12/31 20:49:57;;;;;;;250.60;105.20;;;;;;;0.51;78.52;100008.36;5136316;56;1143223;-88
2020/12/31 20:55:03;;;;;;;211.73;86.60;;;;;;;0.49;78.43;100017.14;5129454;56;1142571;-89
2020/12/31 21:00:09;;;;;;;259.43;98.55;;;;;;;0.49;78.29;100018.44;5182437;56;1140615;-88
2020/12/31 21:05:15;;;;;;;262.07;103.47;;;;;;;0.41;78.29;100018.80;5109825;56;1140907;-89
2020/12/31 21:10:21;;;;;;;226.53;94.00;;;;;;;0.30;78.42;100019.27;5223103;56;1142414;-89
2020/12/31 21:15:26;;;;;;;182.05;76.62;;;;;;;0.17;78.67;100025.89;5207946;56;1140313;-89
2020/12/31 21:20:34;;;;;;;175.53;76.47;;;;;;;0.04;78.84;100018.68;5201187;56;1140363;-90
2020/12/31 21:25:40;;;;;;;205.00;86.70;;;;;;;-0.06;78.79;100022.98;5223244;56;1140785;-91
2020/12/31 21:30:49;;;;;;;170.43;75.80;;;;;;;-0.14;79.44;100015.94;5196532;55;1142487;-89
2020/12/31 21:35:57;;;;;;;174.80;75.87;;;;;;;-0.12;79.04;100024.98;5203966;55;1143284;-88
2020/12/31 21:41:03;;;;;;;141.73;65.03;;;;;;;-0.17;79.17;100011.35;5198513;56;1142436;-89
2020/12/31 21:46:08;;;;;;;189.13;80.73;;;;;;;-0.16;79.81;100020.84;5096016;56;1142546;-89
2020/12/31 21:51:15;;;;;;;187.77;81.90;;;;;;;-0.16;79.31;100021.69;5031108;57;1142836;-90
2020/12/31 21:56:23;;;;;;;190.60;82.63;;;;;;;-0.18;79.05;100015.70;5085271;57;1142763;-88
2020/12/31 22:01:29;;;;;;;182.70;77.50;;;;;;;-0.21;79.23;100017.58;5087040;57;1142715;-89
2020/12/31 22:06:34;;;;;;;189.07;80.50;;;;;;;-0.26;79.25;100020.81;5111248;56;1142643;-88
2020/12/31 22:11:41;;;;;;;193.50;77.20;;;;;;;-0.33;79.89;100023.28;5168004;55;1142967;-89
2020/12/31 22:16:53;;;;;;;150.90;62.87;;;;;;;-0.57;80.04;100018.16;5097844;57;1142941;-89
2020/12/31 22:22:04;;;;;;;123.07;52.93;;;;;;;-0.57;80.04;100018.16;5240837;55;1142414;-88
2020/12/31 22:27:09;;;;;;;114.27;49.70;;;;;;;-0.69;81.19;100018.66;5157409;55;1143188;-89
2020/12/31 22:32:16;;;;;;;134.57;58.13;;;;;;;-0.86;82.20;100024.50;5170582;55;1142459;-89
2020/12/31 22:37:22;;;;;;;130.23;55.23;;;;;;;-0.88;81.51;100011.19;5156792;55;1142848;-90
2020/12/31 22:42:28;;;;;;;135.40;59.47;;;;;;;-0.81;82.36;100016.09;5072447;57;1142571;-90
2020/12/31 22:47:34;;;;;;;121.90;50.98;;;;;;;-0.74;81.54;100016.68;5183289;56;1142386;-89
2020/12/31 22:52:40;;;;;;;106.63;43.77;;;;;;;-0.72;82.10;100013.13;5192517;55;1143031;-90
2020/12/31 22:57:45;;;;;;;112.87;47.47;;;;;;;-0.78;81.67;100009.94;5213627;55;1142528;-90
2020/12/31 23:02:51;;;;;;;144.97;64.53;;;;;;;-0.85;81.88;100015.81;5216484;55;1142527;-90
2020/12/31 23:07:56;;;;;;;165.10;72.23;;;;;;;-0.92;81.73;100016.13;5275279;55;1142545;-89
2020/12/31 23:13:02;;;;;;;122.20;52.53;;;;;;;-0.95;81.96;100004.11;5220941;54;1142669;-89
2020/12/31 23:18:07;;;;;;;74.58;31.15;;;;;;;-0.96;81.94;100006.31;5243987;54;1143303;-89
2020/12/31 23:23:13;;;;;;;99.58;44.05;;;;;;;-0.99;83.04;100002.98;5205757;54;1140721;-89
2020/12/31 23:28:20;;;;;;;79.82;34.58;;;;;;;-1.02;82.93;100007.83;5218104;54;1140780;-89
2020/12/31 23:33:25;;;;;;;96.80;40.83;;;;;;;-1.08;83.21;100002.44;5201407;54;1140357;-88
2020/12/31 23:38:43;;;;;;;102.03;40.20;;;;;;;-1.10;82.69;100007.30;5223955;54;1140623;-89
2020/12/31 23:50:08;;;;;;;162.10;58.30;;;;;;;-1.17;82.83;100001.92;4896008;58;1141398;-90
2020/12/31 23:55:14;;;;;;;95.13;42.13;;;;;;;-1.16;82.99;99994.53;4877105;58;1143015;-89
